Latest Weather Observations for Wellcamp Airport

IDQ60901

Issued at 7:41 pm EST Tuesday 23 October 2018 (issued every 10 minutes, with the page automatically refreshed every 10 minutes)

About weather observations | Map of Brisbane area stations | Latest observations for Brisbane area | Other Formats
Station Details ID: 541150 Name: WELLCAMP AIRPORT Lat: -27.55 Lon: 151.78 Height: 436.98 m
Data from the previous 72 hours. | See also: Recent months for locations in Queensland
Date/Time
EST
Temp
°C
App
Temp
°C
Dew
Point
°C
Rel
Hum
%
Delta-T
°C
Wind Press
QNH
hPa
Press
MSL
hPa
Rain since
9am
mm
Dir  Spd
km/h
Gust
km/h
Spd
kts
Gust
kts
23/07:30pm 23.7 23.8 12.7 50 6.4 SE 4 6 2 3 1015.5 1014.0 0.0
23/07:00pm 22.1 22.4 13.5 58 5.1 NW 4 6 2 3 1015.2 1013.7 0.0
23/06:30pm 23.8 24.1 14.5 56 5.6 NW 6 9 3 5 1014.7 1013.2 0.0
23/06:00pm 25.1 24.8 14.3 51 6.5 NW 9 9 5 5 1014.4 1012.9 0.0
23/05:30pm 27.4 26.8 13.4 42 8.4 NW 9 9 5 5 1014.1 1012.6 0.0
23/05:00pm 28.3 27.0 12.6 38 9.4 NW 11 15 6 8 1013.9 1012.4 0.0
23/04:30pm 28.6 26.9 12.5 37 9.6 WNW 13 20 7 11 1013.7 1012.2 0.0
23/04:00pm 28.5 26.8 12.4 37 9.6 NW 13 22 7 12 1013.7 1012.2 0.0
23/03:30pm 29.0 27.4 11.6 34 10.2 WNW 11 22 6 12 1013.8 1012.3 0.0
23/03:00pm 28.9 27.0 10.6 32 10.6 NNW 11 19 6 10 1013.8 1012.3 0.0
23/02:30pm 28.2 28.1 13.3 40 9.0 WNW 6 17 3 9 1014.2 1012.7 0.0
23/02:00pm 28.8 28.3 12.2 35 9.8 WSW 6 11 3 6 1014.5 1013.0 0.0
23/01:30pm 27.9 27.7 11.9 37 9.4 ENE 4 13 2 7 1015.0 1013.5 0.0
23/01:00pm 27.7 27.5 14.7 45 8.0 N 9 15 5 8 1015.5 1014.0 0.0
23/12:30pm 27.4 26.6 14.1 44 8.1 NNW 11 19 6 10 1016.0 1014.5 0.0
23/12:00pm 26.6 25.9 13.3 43 8.0 W 9 15 5 8 1016.5 1015.0 0.0
23/11:30am 26.2 25.7 15.0 50 6.9 NW 11 20 6 11 1016.9 1015.4 0.0
23/11:00am 25.9 25.2 15.3 52 6.5 NW 13 20 7 11 1017.3 1015.9 0.0
23/10:30am 25.5 25.0 14.9 52 6.5 N 11 19 6 10 1017.8 1016.3 0.0
23/10:00am 25.0 25.5 15.6 56 5.8 N 7 15 4 8 1018.0 1016.5 0.0
23/09:30am 23.3 23.4 15.4 61 4.8 ENE 9 19 5 10 1018.1 1016.6 0.0
23/09:00am 22.4 22.1 15.5 65 4.2 NE 11 20 6 11 1018.1 1016.6 0.0
23/08:30am 21.4 21.1 15.5 69 3.6 ENE 11 17 6 9 1018.2 1016.7 0.0
23/08:00am 20.7 21.0 15.9 74 2.9 E 9 13 5 7 1018.4 1016.9 0.0
23/07:30am 19.6 20.5 16.1 80 2.1 N 6 11 3 6 1018.2 1016.7 0.0
23/07:00am 18.7 19.5 15.9 84 1.7 NNE 6 9 3 5 1017.9 1016.4 0.0
23/06:30am 17.9 19.1 15.9 88 1.2 E 4 11 2 6 1017.3 1015.9 0.0
23/06:00am 15.5 16.0 14.9 96 0.4 SSE 6 6 3 3 1017.1 1015.7 0.0
23/05:30am 14.5 14.6 14.0 97 0.3 SSE 6 7 3 4 1016.7 1015.2 0.0
23/05:00am 14.1 14.9 13.8 98 0.2 SW 2 4 1 2 1016.4 1014.9 0.0
23/04:30am 14.6 15.5 14.0 96 0.3 E 2 2 1 1 1016.1 1014.6 0.0
23/04:14am 15.1 16.1 14.3 95 0.5 W 2 4 1 2 1016.1 1014.6 0.0
23/04:00am 15.5 16.6 14.5 94 0.6 WSW 2 4 1 2 1016.1 1014.6 0.0
23/03:30am 16.4 17.2 14.8 90 0.9 NNW 4 6 2 3 1016.0 1014.5 0.0
23/03:00am 16.6 17.1 15.0 90 0.9 NNE 6 11 3 6 1015.8 1014.3 0.0
23/02:40am 16.7 17.2 15.1 90 0.9 NE 6 11 3 6 1015.9 1014.4 0.0
23/02:30am 16.6 17.5 15.0 90 0.9 NNE 4 7 2 4 1015.9 1014.4 0.0
23/02:27am 16.8 17.4 15.2 90 0.9 N 6 7 3 4 1015.9 1014.4 0.0
23/02:00am 16.9 17.8 15.2 90 1.0 NW 4 6 2 3 1015.9 1014.4 0.0
23/01:30am 17.4 17.5 15.6 89 1.1 ENE 9 13 5 7 1016.1 1014.6 0.0
23/01:00am 17.7 18.0 15.9 89 1.1 NNW 9 17 5 9 1016.5 1015.0 0.0
23/12:32am 17.7 18.6 16.0 90 1.0 W 6 13 3 7 1016.5 1015.0 0.0
23/12:30am 17.7 18.4 16.0 90 1.0 WNW 7 17 4 9 1016.5 1015.0 0.0
23/12:00am 17.8 14.5 16.0 89 1.1 E 28 35 15 19 1016.1 1014.6 0.0
 
Date/Time
EST
Temp
°C
App
Temp
°C
Dew
Point
°C
Rel
Hum
%
Delta-T
°C
Wind Press
QNH
hPa
Press
MSL
hPa
Rain since
9am
mm
Dir  Spd
km/h
Gust
km/h
Spd
kts
Gust
kts
22/11:30pm 18.1 13.5 16.1 88 1.2 E 35 46 19 25 1015.9 1014.4 0.0
22/11:00pm 18.3 12.9 16.1 87 1.3 E 39 48 21 26 1016.1 1014.6 0.0
22/10:30pm 18.7 14.1 16.1 85 1.6 E 35 46 19 25 1016.1 1014.6 0.0
22/10:00pm 19.0 14.5 16.4 85 1.6 E 35 46 19 25 1016.1 1014.6 0.0
22/09:30pm 19.2 15.2 16.6 85 1.6 E 33 43 18 23 1016.0 1014.5 0.0
22/09:00pm 19.7 15.8 16.9 84 1.7 E 33 44 18 24 1016.1 1014.6 0.0
22/08:30pm 20.4 16.6 16.8 80 2.2 E 32 41 17 22 1015.9 1014.4 0.0
22/08:00pm 21.1 17.4 16.9 77 2.6 E 32 44 17 24 1015.8 1014.3 0.0
22/07:30pm 22.3 20.0 15.6 66 4.1 E 22 33 12 18 1015.5 1014.0 0.0
22/07:00pm 22.8 20.2 14.9 61 4.8 E 22 32 12 17 1015.2 1013.7 0.0
22/06:30pm 23.4 20.8 14.9 59 5.2 E 22 30 12 16 1014.8 1013.3 0.0
22/06:00pm 24.1 21.4 14.5 55 5.8 E 22 30 12 16 1014.6 1013.1 0.0
22/05:30pm 25.0 22.2 14.2 51 6.5 E 22 28 12 15 1014.3 1012.8 0.0
22/05:00pm 26.7 26.6 13.4 43 8.0 SSE 6 11 3 6 1013.9 1012.4 0.0
22/04:30pm 26.9 26.2 13.3 43 8.1 SE 9 17 5 9 1013.7 1012.2 0.0
22/04:00pm 27.0 27.2 14.7 47 7.5 S 7 15 4 8 1013.7 1012.2 0.0
22/03:30pm 25.9 26.0 14.4 49 7.0 S 7 17 4 9 1013.8 1012.3 0.0
22/03:00pm 26.8 27.0 13.2 43 8.1 E 4 11 2 6 1013.8 1012.3 0.0
22/02:30pm 26.8 26.5 13.2 43 8.1 WSW 7 17 4 9 1014.1 1012.6 0.0
22/02:00pm 26.2 25.9 14.3 48 7.2 S 9 15 5 8 1014.3 1012.8 0.0
22/01:30pm 25.9 25.7 13.1 45 7.6 ESE 6 11 3 6 1014.6 1013.1 0.0
22/01:00pm 25.8 25.7 14.0 48 7.1 NNW 7 13 4 7 1015.0 1013.5 0.0
22/12:30pm 25.4 24.6 13.9 49 6.9 SSW 11 17 6 9 1015.5 1014.0 0.0
22/12:00pm 24.8 25.1 14.6 53 6.2 SE 6 17 3 9 1015.7 1014.2 0.0
22/11:30am 23.7 23.4 13.3 52 6.1 NNE 7 15 4 8 1016.0 1014.5 0.0
22/11:00am 23.5 23.7 14.2 56 5.6 S 6 9 3 5 1016.4 1014.9 0.0
22/10:30am 23.2 23.2 14.2 57 5.4 NNE 7 13 4 7 1016.8 1015.3 0.0
22/10:00am 22.2 21.8 14.1 60 4.8 NE 9 17 5 9 1017.1 1015.7 0.0
22/09:30am 21.4 20.5 13.8 62 4.5 NE 11 19 6 10 1017.2 1015.8 0.0
22/09:00am 21.0 20.0 14.6 67 3.8 ENE 13 19 7 10 1017.3 1015.9 -
22/08:30am 20.6 20.5 14.9 70 3.4 E 9 20 5 11 1017.2 1015.8 -
22/08:00am 19.6 20.4 14.8 74 2.9 S 4 7 2 4 1017.1 1015.7 -
22/07:30am 18.3 18.9 14.2 77 2.4 SE 4 7 2 4 1016.9 1015.4 -
22/07:00am 16.5 17.4 14.0 85 1.4 S 2 6 1 3 1016.8 1015.3 -
22/06:30am 14.9 15.3 13.6 92 0.7 S 4 7 2 4 1016.7 1015.2 -
22/06:00am 12.9 12.9 12.3 96 0.3 SSE 4 6 2 3 1016.4 1014.9 -
22/05:30am 11.7 10.0 11.2 97 0.3 SSE 11 13 6 7 1015.8 1014.3 -
22/05:00am 11.6 10.3 11.3 98 0.2 S 9 11 5 6 1015.5 1014.0 -
22/04:30am 11.4 9.3 11.1 98 0.2 SSE 13 15 7 8 1015.0 1013.5 -
22/04:00am 11.5 9.7 11.0 97 0.3 SSE 11 15 6 8 1014.8 1013.3 -
22/03:30am 12.0 10.8 11.7 98 0.2 SSE 9 11 5 6 1014.8 1013.3 -
22/03:00am 12.0 11.3 11.5 97 0.3 S 6 7 3 4 1014.7 1013.2 0.2
22/02:30am 12.7 12.0 12.1 96 0.3 S 7 9 4 5 1014.6 1013.1 -
22/02:00am 12.8 12.2 12.2 96 0.3 S 7 11 4 6 1014.7 1013.2 -
22/01:30am 12.8 11.1 12.3 97 0.3 SSE 13 15 7 8 1015.2 1013.7 -
22/01:00am 12.2 11.0 11.7 97 0.3 SSE 9 13 5 7 1015.3 1013.8 -
22/12:30am 12.2 11.6 11.7 97 0.3 N 6 7 3 4 1015.3 1013.8 -
22/12:00am 12.7 12.2 12.2 97 0.3 WNW 6 6 3 3 1015.6 1014.1 -
 
Date/Time
EST
Temp
°C
App
Temp
°C
Dew
Point
°C
Rel
Hum
%
Delta-T
°C
Wind Press
QNH
hPa
Press
MSL
hPa
Rain since
9am
mm
Dir  Spd
km/h
Gust
km/h
Spd
kts
Gust
kts
21/11:30pm 13.1 13.1 12.5 96 0.3 E 4 6 2 3 1015.9 1014.4 -
21/11:00pm 13.5 12.7 12.9 96 0.3 S 9 13 5 7 1016.1 1014.6 -
21/10:30pm 13.3 12.8 12.8 97 0.3 S 7 11 4 6 1016.0 1014.5 -
21/10:00pm 13.7 14.7 13.1 96 0.3 CALM 0 2 0 1 1016.2 1014.7 -
21/09:30pm 13.2 13.3 12.6 96 0.3 SW 4 6 2 3 1016.2 1014.7 -
21/09:00pm 14.2 14.4 13.2 94 0.6 SSE 4 4 2 2 1016.1 1014.6 -
21/08:30pm 14.8 15.6 13.7 93 0.6 SE 2 4 1 2 1015.8 1014.3 -
21/08:00pm 14.4 14.7 13.3 93 0.6 SW 4 6 2 3 1015.6 1014.1 -
21/07:30pm 15.5 16.0 13.9 90 0.9 ENE 4 6 2 3 1015.0 1013.5 -
21/07:00pm 15.4 15.4 13.6 89 1.0 WNW 6 7 3 4 1014.7 1013.2 -
21/06:30pm 16.1 15.2 13.8 86 1.3 NNW 11 13 6 7 1014.2 1012.7 -
21/06:00pm 17.7 17.3 14.0 79 2.2 NNW 9 11 5 6 1014.2 1012.7 -
21/05:30pm 19.1 18.9 13.5 70 3.3 NW 7 11 4 6 1013.9 1012.4 -
21/05:00pm 18.9 17.2 13.7 72 3.0 NNW 15 19 8 10 1013.4 1011.9 -
21/04:30pm 19.1 17.8 14.8 76 2.6 NNW 15 20 8 11 1012.9 1011.3 -
21/01:19pm 13.6 5.1 13.3 98 0.2 SSW 50 91 27 49 1015.3 1013.8 23.4
21/01:13pm 13.3 3.5 12.7 96 0.3 SW 56 91 30 49 1016.0 1014.5 23.0
21/01:12pm 13.5 3.8 12.9 96 0.3 SW 56 91 30 49 1016.2 1014.7 21.8
21/01:10pm 14.5 6.9 13.7 95 0.5 WSW 46 91 25 49 1016.0 1014.5 18.0
21/01:06pm 18.2 15.6 16.0 87 1.3 SW 24 74 13 40 1014.9 1013.4 5.6
21/01:03pm 20.1 19.0 16.3 79 2.3 SSW 17 32 9 17 1014.9 1013.4 1.6
21/01:00pm 20.9 20.1 16.1 74 2.9 S 15 22 8 12 1014.3 1012.8 0.2
21/12:30pm 22.2 22.8 15.3 65 4.2 SW 6 13 3 7 1013.8 1012.3 0.0
21/12:00pm 22.0 21.8 15.6 67 3.9 SW 11 19 6 10 1015.2 1013.7 0.0
21/11:30am 21.2 20.4 16.2 73 3.1 SW 15 20 8 11 1015.5 1014.0 0.0
21/11:00am 21.7 20.3 16.6 73 3.2 SW 19 30 10 16 1016.2 1014.7 0.0
21/10:30am 21.2 19.5 16.2 73 3.1 WSW 20 28 11 15 1016.6 1015.1 0.0
21/10:00am 21.9 20.3 16.4 71 3.4 WSW 20 28 11 15 1016.8 1015.3 0.0
21/09:30am 21.2 20.2 16.6 75 2.8 WSW 17 24 9 13 1016.6 1015.1 0.0
21/09:00am 22.5 21.7 17.0 71 3.4 W 17 22 9 12 1016.4 1014.9 5.4
21/08:30am 22.2 23.4 16.9 72 3.3 WNW 6 11 3 6 1016.3 1014.8 5.4
21/08:00am 21.1 22.6 16.7 76 2.7 NNW 4 6 2 3 1016.1 1014.6 5.4
21/07:30am 20.0 21.2 16.8 82 2.0 NNW 6 9 3 5 1015.8 1014.3 5.4
21/07:00am 18.8 20.5 16.2 85 1.6 NNW 2 6 1 3 1015.6 1014.1 5.4
21/06:30am 17.6 19.3 16.3 92 0.8 NNW 2 4 1 2 1015.0 1013.5 5.4
21/06:00am 17.0 17.8 15.9 93 0.7 NNW 6 7 3 4 1015.2 1013.7 5.4
21/05:30am 16.8 17.9 15.7 93 0.7 NNE 4 9 2 5 1015.2 1013.7 5.4
21/05:00am 16.9 17.1 15.8 93 0.7 NNW 9 13 5 7 1015.7 1014.2 5.4
21/04:30am 17.0 16.3 15.5 91 0.9 NE 13 20 7 11 1014.3 1012.8 5.4
21/04:00am 17.0 16.3 15.5 91 0.9 NE 13 20 7 11 1014.3 1012.8 5.4
21/03:30am 16.8 17.4 15.3 91 0.9 S 6 7 3 4 1013.2 1011.7 5.4
21/03:00am 17.2 14.6 14.8 86 1.4 ESE 22 28 12 15 1012.2 1010.7 5.4
21/02:55am 17.2 14.3 15.0 87 1.3 ESE 24 30 13 16 1011.5 1010.0 5.4
21/02:30am 17.0 14.6 15.3 90 1.0 SE 22 32 12 17 1013.6 1012.1 5.4
21/02:00am 17.2 15.4 16.1 93 0.7 SSE 20 30 11 16 1014.7 1013.2 5.4
21/01:30am 17.3 15.8 16.2 93 0.7 S 19 26 10 14 1015.7 1014.2 5.0
21/01:09am 17.3 15.6 16.2 93 0.7 SSW 20 28 11 15 1016.6 1015.1 4.6
21/01:00am 17.3 15.8 16.2 93 0.7 SW 19 26 10 14 1016.9 1015.4 4.2
21/12:57am 17.4 15.9 16.3 93 0.7 SW 19 28 10 15 1017.1 1015.7 4.0
21/12:56am 17.3 15.6 16.2 93 0.7 SW 20 28 11 15 1017.1 1015.7 4.0
21/12:44am 17.5 16.5 16.5 94 0.6 SSW 17 26 9 14 1017.0 1015.5 3.2
21/12:42am 17.6 17.0 16.6 94 0.6 SSW 15 26 8 14 1017.0 1015.5 3.2
21/12:30am 17.9 17.9 17.1 95 0.5 S 13 24 7 13 1017.3 1015.9 2.6
21/12:25am 17.9 17.1 17.1 95 0.5 S 17 24 9 13 1017.2 1015.8 2.2
21/12:15am 17.9 16.6 16.9 94 0.6 SSW 19 30 10 16 1017.3 1015.9 1.6
21/12:00am 17.8 16.6 17.0 95 0.5 SSW 19 24 10 13 1017.4 1016.0 0.8
 
Date/Time
EST
Temp
°C
App
Temp
°C
Dew
Point
°C
Rel
Hum
%
Delta-T
°C
Wind Press
QNH
hPa
Press
MSL
hPa
Rain since
9am
mm
Dir  Spd
km/h
Gust
km/h
Spd
kts
Gust
kts
20/11:55pm 17.9 16.5 16.9 94 0.6 SSW 20 26 11 14 1017.4 1016.0 0.6
20/11:30pm 19.2 16.0 16.2 83 1.8 SW 28 37 15 20 1017.3 1015.9 0.0
20/11:00pm 20.0 16.7 16.0 78 2.4 SW 28 39 15 21 1016.9 1015.4 0.0
20/10:30pm 20.8 19.6 16.2 75 2.8 SW 17 28 9 15 1016.5 1015.0 0.0
20/10:00pm 20.1 20.6 16.5 80 2.2 SSE 9 26 5 14 1016.4 1014.9 0.0
20/09:30pm 21.2 21.6 16.4 74 3.0 E 9 13 5 7 1015.6 1014.1 0.0
20/09:00pm 21.3 19.6 16.3 73 3.1 ENE 20 30 11 16 1014.6 1013.1 0.0
20/08:30pm 21.9 20.0 15.7 68 3.8 ENE 20 26 11 14 1014.8 1013.3 0.0
20/08:00pm 22.1 21.1 15.5 66 4.0 ENE 15 20 8 11 1014.8 1013.3 0.0

Latest Capital City Observations: Canberra | Sydney | Melbourne | Brisbane | Adelaide | Perth | Hobart | Darwin

Other Formats:

Comma delimited format used in spreadsheet applications
http://www.bom.gov.au/fwo/IDQ60901/IDQ60901.99435.axf

JavaScript Object Notation format (JSON) in row-major order
http://www.bom.gov.au/fwo/IDQ60901/IDQ60901.99435.json